createdAt,value
2023-03-11T00:03:52.302Z,1.80
2023-03-11T00:07:54.760Z,1.50
2023-03-11T00:11:56.612Z,1.57
2023-03-11T00:16:00.734Z,1.60
2023-03-11T00:20:04.820Z,1.67
2023-03-11T00:24:06.991Z,1.20
2023-03-11T00:28:10.485Z,1.37
2023-03-11T00:32:12.378Z,1.60
2023-03-11T00:36:31.320Z,1.20
2023-03-11T00:40:35.547Z,1.30
2023-03-11T00:44:37.443Z,1.40
2023-03-11T00:48:39.451Z,1.40
2023-03-11T00:52:41.403Z,1.10
2023-03-11T00:56:43.256Z,1.27
2023-03-11T01:00:46.311Z,1.20
2023-03-11T01:04:48.453Z,1.20
2023-03-11T01:08:50.314Z,1.50
2023-03-11T01:12:52.320Z,1.10
2023-03-11T01:16:55.310Z,1.20
2023-03-11T01:20:57.150Z,1.20
2023-03-11T01:24:58.946Z,1.20
2023-03-11T01:29:00.774Z,1.10
2023-03-11T01:33:03.435Z,1.40
2023-03-11T01:37:05.246Z,1.47
2023-03-11T01:41:07.137Z,1.17
2023-03-11T01:45:24.232Z,1.37
2023-03-11T01:49:26.293Z,1.07
2023-03-11T01:53:28.497Z,1.40
2023-03-11T01:57:31.049Z,1.30
2023-03-11T02:01:33.481Z,1.53
2023-03-11T02:05:36.711Z,1.20
2023-03-11T02:09:38.937Z,1.40
2023-03-11T02:13:41.926Z,1.20
2023-03-11T02:17:43.915Z,1.40
2023-03-11T02:21:45.797Z,1.30
2023-03-11T02:26:18.809Z,1.37
2023-03-11T02:30:23.473Z,1.40
2023-03-11T02:34:28.643Z,1.33
2023-03-11T02:38:30.569Z,1.10
2023-03-11T02:42:33.050Z,1.30
2023-03-11T02:46:36.673Z,1.30
2023-03-11T02:50:40.013Z,1.47
2023-03-11T02:54:42.340Z,1.23
2023-03-11T02:58:44.264Z,1.37
2023-03-11T03:02:46.688Z,1.77
2023-03-11T03:06:49.171Z,1.67
2023-03-11T03:10:52.358Z,1.00
2023-03-11T03:14:54.374Z,1.23
2023-03-11T03:18:56.455Z,0.90
2023-03-11T03:22:58.303Z,1.27
2023-03-11T03:27:03.495Z,1.20
2023-03-11T03:31:08.367Z,1.20
2023-03-11T03:35:12.271Z,1.27
2023-03-11T03:39:36.899Z,1.27
2023-03-11T03:43:38.822Z,1.40
2023-03-11T03:47:40.981Z,1.23
2023-03-11T03:51:42.993Z,1.00
2023-03-11T03:55:51.087Z,1.23
2023-03-11T03:59:54.317Z,1.20
2023-03-11T04:03:56.278Z,1.20
2023-03-11T04:07:58.367Z,1.20
2023-03-11T04:12:00.252Z,1.10
2023-03-11T04:16:07.778Z,1.20
2023-03-11T04:20:10.528Z,1.10
2023-03-11T04:24:13.022Z,1.23
2023-03-11T04:28:15.008Z,1.40
2023-03-11T04:32:19.179Z,1.33
2023-03-11T04:36:21.542Z,1.30
2023-03-11T04:40:23.893Z,1.50
2023-03-11T04:44:25.756Z,1.67
2023-03-11T04:48:27.740Z,1.63
2023-03-11T04:52:29.952Z,1.27
2023-03-11T04:56:31.913Z,1.40
2023-03-11T05:00:34.152Z,1.60
2023-03-11T05:04:40.764Z,1.50
2023-03-11T05:08:42.988Z,1.60
2023-03-11T05:12:44.871Z,1.47
2023-03-11T05:16:46.836Z,1.30
2023-03-11T05:20:49.550Z,1.00
2023-03-11T05:24:53.286Z,1.23
2023-03-11T05:28:55.355Z,1.30
2023-03-11T05:32:58.029Z,1.10
2023-03-11T05:37:03.171Z,1.50
2023-03-11T05:41:06.418Z,1.60
2023-03-11T05:45:09.903Z,2.13
2023-03-11T05:49:13.399Z,1.80
2023-03-11T05:53:15.403Z,1.50
2023-03-11T05:57:19.171Z,1.77
2023-03-11T06:01:21.024Z,1.90
2023-03-11T06:05:23.731Z,2.03
2023-03-11T06:09:27.076Z,1.77
2023-03-11T06:13:29.517Z,1.30
2023-03-11T06:17:32.522Z,2.00
2023-03-11T06:21:35.935Z,1.40
2023-03-11T06:25:37.908Z,8.80
2023-03-11T06:29:40.413Z,1.60
2023-03-11T06:33:42.768Z,1.70
2023-03-11T06:37:44.763Z,1.60
2023-03-11T06:41:46.693Z,1.80
2023-03-11T06:45:49.315Z,1.90
2023-03-11T06:49:52.544Z,1.90
2023-03-11T06:53:54.839Z,1.50
2023-03-11T06:57:58.072Z,1.40
2023-03-11T07:02:01.323Z,1.47
2023-03-11T07:06:05.565Z,1.40
2023-03-11T07:10:09.306Z,1.47
2023-03-11T07:14:11.357Z,1.87
2023-03-11T07:18:17.663Z,1.40
2023-03-11T07:22:20.731Z,1.50
2023-03-11T07:26:23.037Z,1.67
2023-03-11T07:30:24.814Z,1.50
2023-03-11T07:34:26.611Z,1.50
2023-03-11T07:38:28.463Z,1.70
2023-03-11T07:42:30.215Z,2.23
2023-03-11T07:46:33.324Z,1.97
2023-03-11T07:50:35.358Z,1.80
2023-03-11T07:54:37.282Z,1.30
2023-03-11T07:58:39.704Z,2.00
2023-03-11T08:02:41.624Z,2.17
2023-03-11T08:06:46.160Z,2.10
2023-03-11T08:10:48.075Z,1.27
2023-03-11T08:14:49.909Z,1.60
2023-03-11T08:18:52.720Z,1.50
2023-03-11T08:22:58.053Z,1.70
2023-03-11T08:27:00.557Z,1.80
2023-03-11T08:31:03.179Z,1.73
2023-03-11T08:35:05.464Z,1.63
2023-03-11T08:39:07.348Z,1.43
2023-03-11T08:43:13.337Z,2.13
2023-03-11T08:47:15.205Z,2.03
2023-03-11T08:51:17.258Z,1.50
2023-03-11T08:55:25.045Z,1.37
2023-03-11T08:59:26.949Z,1.60
2023-03-11T09:03:32.511Z,1.50
2023-03-11T09:07:34.388Z,1.60
2023-03-11T09:11:37.435Z,1.73
2023-03-11T09:15:39.959Z,1.80
2023-03-11T09:19:41.704Z,1.23
2023-03-11T09:23:44.586Z,1.83
2023-03-11T09:27:46.527Z,1.40
2023-03-11T09:31:48.503Z,1.30
2023-03-11T09:35:50.402Z,1.97
2023-03-11T09:39:52.343Z,1.50
2023-03-11T09:44:07.046Z,2.00
2023-03-11T09:48:22.786Z,1.50
2023-03-11T09:52:35.507Z,1.40
2023-03-11T09:56:38.815Z,1.60
2023-03-11T10:00:41.655Z,2.20
2023-03-11T10:05:02.540Z,1.53
2023-03-11T10:09:13.478Z,1.60
2023-03-11T10:13:28.732Z,0.90
2023-03-11T10:17:58.697Z,1.37
2023-03-11T10:22:36.172Z,1.10
2023-03-11T10:26:43.386Z,1.00
2023-03-11T10:31:01.495Z,1.30
2023-03-11T10:35:21.544Z,1.00
2023-03-11T10:39:24.186Z,1.43
2023-03-11T10:43:34.998Z,1.13
2023-03-11T10:47:36.791Z,1.73
2023-03-11T10:51:38.898Z,1.33
2023-03-11T10:55:50.168Z,1.20
2023-03-11T10:59:54.670Z,1.07
2023-03-11T11:04:00.827Z,1.40
2023-03-11T11:08:20.935Z,1.40
2023-03-11T11:12:22.745Z,1.40
2023-03-11T11:16:25.115Z,0.90
2023-03-11T11:20:28.381Z,1.40
2023-03-11T11:24:31.232Z,1.87
2023-03-11T11:28:33.949Z,1.27
2023-03-11T11:32:37.049Z,1.50
2023-03-11T11:36:39.659Z,1.33
2023-03-11T11:40:41.455Z,1.20
2023-03-11T11:44:43.738Z,1.50
2023-03-11T11:48:59.211Z,1.27
2023-03-11T11:53:28.345Z,1.47
2023-03-11T11:57:30.378Z,1.30
2023-03-11T12:02:18.255Z,1.43
2023-03-11T12:06:32.154Z,1.50
2023-03-11T12:10:41.696Z,1.20
2023-03-11T12:15:07.416Z,1.53
2023-03-11T12:19:12.258Z,1.30
2023-03-11T12:23:48.225Z,1.40
2023-03-11T12:27:53.352Z,2.93
2023-03-11T12:31:57.044Z,1.60
2023-03-11T12:36:00.569Z,1.60
2023-03-11T12:40:41.246Z,1.40
2023-03-11T12:44:43.377Z,1.40
2023-03-11T12:48:46.535Z,1.30
2023-03-11T12:52:54.461Z,1.30
2023-03-11T12:57:02.678Z,1.33
2023-03-11T13:01:25.917Z,1.67
2023-03-11T13:05:52.032Z,1.27
2023-03-11T13:10:28.609Z,1.90
2023-03-11T13:14:34.941Z,1.87
2023-03-11T13:18:37.037Z,1.60
2023-03-11T13:22:53.755Z,1.67
2023-03-11T13:27:04.454Z,5.13
2023-03-11T13:31:25.060Z,1.50
2023-03-11T13:35:35.820Z,1.50
2023-03-11T13:40:07.640Z,1.53
2023-03-11T13:44:29.197Z,2.30
2023-03-11T13:48:40.543Z,5.33
2023-03-11T13:52:48.894Z,1.30
2023-03-11T13:56:55.780Z,1.67
2023-03-11T14:01:02.073Z,1.40
2023-03-11T14:05:09.525Z,1.50
2023-03-11T14:09:20.054Z,1.70
2023-03-11T14:13:22.940Z,1.33
2023-03-11T14:17:24.895Z,1.47
2023-03-11T14:21:27.789Z,1.30
2023-03-11T14:25:36.340Z,1.10
2023-03-11T14:29:43.681Z,1.37
2023-03-11T14:33:58.566Z,1.57
2023-03-11T14:38:00.886Z,1.40
2023-03-11T14:42:18.745Z,1.53
2023-03-11T14:46:27.709Z,1.70
2023-03-11T14:50:33.631Z,1.23
2023-03-11T14:54:37.732Z,1.30
2023-03-11T14:59:10.514Z,1.10
2023-03-11T15:03:33.666Z,1.40
2023-03-11T15:07:37.390Z,1.50
2023-03-11T15:11:49.633Z,1.43
2023-03-11T15:15:59.412Z,1.60
2023-03-11T15:20:01.259Z,1.43
2023-03-11T15:24:06.625Z,1.50
2023-03-11T15:28:36.378Z,1.50
2023-03-11T15:32:43.002Z,1.10
2023-03-11T15:37:18.728Z,1.40
2023-03-11T15:41:20.528Z,1.53
2023-03-11T15:45:22.407Z,2.17
2023-03-11T15:49:24.231Z,1.30
2023-03-11T15:53:27.844Z,1.90
2023-03-11T15:57:30.470Z,1.93
2023-03-11T16:01:32.286Z,1.50
2023-03-11T16:05:34.080Z,1.67
2023-03-11T16:09:35.885Z,5.70
2023-03-11T16:13:37.723Z,6.40
2023-03-11T16:17:49.316Z,1.40
2023-03-11T16:21:51.528Z,2.20
2023-03-11T16:26:03.414Z,1.60
2023-03-11T16:30:05.853Z,1.60
2023-03-11T16:34:07.743Z,1.33
2023-03-11T16:38:10.094Z,5.63
2023-03-11T16:42:11.871Z,1.50
2023-03-11T16:46:13.773Z,1.70
2023-03-11T16:50:15.910Z,2.03
2023-03-11T16:54:17.696Z,2.50
2023-03-11T16:58:20.293Z,2.23
2023-03-11T17:02:24.440Z,3.50
2023-03-11T17:06:26.367Z,3.37
2023-03-11T17:10:29.016Z,2.93
2023-03-11T17:14:32.244Z,3.53
2023-03-11T17:18:34.170Z,3.30
2023-03-11T17:22:36.034Z,5.43
2023-03-11T17:26:38.012Z,2.00
2023-03-11T17:30:44.467Z,2.47
2023-03-11T17:34:46.264Z,9.60
2023-03-11T17:38:51.471Z,5.63
2023-03-11T17:42:53.347Z,3.50
2023-03-11T17:46:55.183Z,5.70
2023-03-11T17:50:57.248Z,5.60
2023-03-11T17:54:59.119Z,5.80
2023-03-11T17:59:00.990Z,3.33
2023-03-11T18:03:02.959Z,2.20
2023-03-11T18:07:04.748Z,5.47
2023-03-11T18:11:09.302Z,3.30
2023-03-11T18:15:18.172Z,1.50
2023-03-11T18:19:19.993Z,2.03
2023-03-11T18:23:21.862Z,1.67
2023-03-11T18:27:24.506Z,1.90
2023-03-11T18:31:27.731Z,1.60
2023-03-11T18:35:30.212Z,3.90
2023-03-11T18:39:32.041Z,10.73
2023-03-11T18:43:33.900Z,26.53
2023-03-11T18:47:35.771Z,2.60
2023-03-11T18:51:37.668Z,2.90
2023-03-11T18:55:39.468Z,2.47
2023-03-11T18:59:41.467Z,2.10
2023-03-11T19:03:44.449Z,2.30
2023-03-11T19:07:46.329Z,2.63
2023-03-11T19:11:48.154Z,2.50
2023-03-11T19:15:50.416Z,2.67
2023-03-11T19:19:52.317Z,3.77
2023-03-11T19:23:56.417Z,6.17
2023-03-11T19:27:58.274Z,5.73
2023-03-11T19:32:01.697Z,5.60
2023-03-11T19:36:06.847Z,4.10
2023-03-11T19:40:11.462Z,4.93
2023-03-11T19:44:13.426Z,2.93
2023-03-11T19:48:15.348Z,2.90
2023-03-11T19:52:17.174Z,7.43
2023-03-11T19:56:19.067Z,8.53
2023-03-11T20:00:21.506Z,9.20
2023-03-11T20:04:23.462Z,8.70
2023-03-11T20:08:26.029Z,4.80
2023-03-11T20:12:27.889Z,5.30
2023-03-11T20:16:29.807Z,5.90
2023-03-11T20:20:32.932Z,7.63
2023-03-11T20:24:34.821Z,6.17
2023-03-11T20:28:36.759Z,4.07
2023-03-11T20:32:38.669Z,4.70
2023-03-11T20:36:40.499Z,4.20
2023-03-11T20:40:42.427Z,4.87
2023-03-11T20:44:45.192Z,5.33
2023-03-11T20:48:47.388Z,4.40
2023-03-11T20:52:50.342Z,12.10
2023-03-11T20:56:52.253Z,9.33
2023-03-11T21:00:54.048Z,9.27
2023-03-11T21:04:56.408Z,10.13
2023-03-11T21:09:01.058Z,9.50
2023-03-11T21:13:02.963Z,6.60
2023-03-11T21:17:05.093Z,3.93
2023-03-11T21:21:08.610Z,3.70
2023-03-11T21:25:10.504Z,12.27
2023-03-11T21:29:12.461Z,7.67
2023-03-11T21:33:14.444Z,4.90
2023-03-11T21:37:17.296Z,5.73
2023-03-11T21:41:20.859Z,3.70
2023-03-11T21:45:22.751Z,13.33
2023-03-11T21:49:24.683Z,9.37
2023-03-11T21:53:26.662Z,8.20
2023-03-11T21:57:28.522Z,4.83
2023-03-11T22:01:30.603Z,4.47
2023-03-11T22:05:32.555Z,2.80
2023-03-11T22:09:34.331Z,3.30
2023-03-11T22:13:36.311Z,3.23
2023-03-11T22:17:38.403Z,4.80
2023-03-11T22:21:40.495Z,3.90
2023-03-11T22:25:42.480Z,4.50
2023-03-11T22:29:44.458Z,4.40
2023-03-11T22:33:46.661Z,4.30
2023-03-11T22:37:48.489Z,2.87
2023-03-11T22:41:50.424Z,5.50
2023-03-11T22:45:52.300Z,3.37
2023-03-11T22:49:54.168Z,4.33
2023-03-11T22:53:56.032Z,3.03
2023-03-11T22:57:57.920Z,3.80
2023-03-11T23:01:59.701Z,3.10
2023-03-11T23:06:03.289Z,3.00
2023-03-11T23:10:06.756Z,2.80
2023-03-11T23:14:08.531Z,2.90
2023-03-11T23:18:11.209Z,2.73
2023-03-11T23:22:12.960Z,4.30
2023-03-11T23:26:15.445Z,3.93
2023-03-11T23:30:17.911Z,4.97
2023-03-11T23:34:19.690Z,9.00
2023-03-11T23:38:21.548Z,5.87
2023-03-11T23:42:26.227Z,4.30
2023-03-11T23:46:28.272Z,3.53
2023-03-11T23:50:30.137Z,3.30
2023-03-11T23:54:32.210Z,3.17
2023-03-11T23:58:35.072Z,3.60
